Time;durP1;ratioP1;P1;durP2;ratioP2;P2;SDS_P1;SDS_P2;PMS_P1;PMS_P2;Temp;Humidity;BMP_temperature;BMP_pressure;BME280_temperature;BME280_humidity;BME280_pressure;Samples;Min_cycle;Max_cycle;Signal;HPM_P1;HPM_P2
2022/09/03 00:02:26;;;;;;;;;;;15.90;99.90;;;;;;5104771;27;20032;-68
2022/09/03 00:05:06;;;;;;;78.07;59.17;;;15.80;99.90;;;;;;5108555;27;20013;-68
2022/09/03 00:07:41;;;;;;;79.28;59.38;;;15.80;99.90;;;;;;5108546;27;20023;-68
2022/09/03 00:10:12;;;;;;;78.05;59.67;;;15.80;99.90;;;;;;5108482;27;20037;-68
2022/09/03 00:12:41;;;;;;;86.57;61.53;;;15.80;99.90;;;;;;5107381;27;20031;-69
2022/09/03 00:15:12;;;;;;;88.15;64.22;;;15.80;99.90;;;;;;5103231;28;21591;-69
2022/09/03 00:17:45;;;;;;;85.10;63.65;;;15.80;99.90;;;;;;5109039;28;20720;-69
2022/09/03 00:20:41;;;;;;;85.60;62.75;;;15.80;99.90;;;;;;5085376;28;20090;-69
2022/09/03 00:23:14;;;;;;;83.43;62.72;;;15.80;99.90;;;;;;5106864;28;20042;-68
2022/09/03 00:25:43;;;;;;;80.68;61.38;;;15.90;99.90;;;;;;5107817;28;20043;-69
2022/09/03 00:28:15;;;;;;;96.38;68.10;;;15.90;99.90;;;;;;5103764;28;20038;-69
2022/09/03 00:30:44;;;;;;;94.78;66.47;;;15.90;99.90;;;;;;5089388;27;20452;-69
2022/09/03 00:33:20;;;;;;;85.57;62.33;;;16.00;99.90;;;;;;5113645;27;20076;-69
2022/09/03 00:35:52;;;;;;;76.50;58.70;;;16.00;99.90;;;;;;5122174;27;20039;-70
2022/09/03 00:38:20;;;;;;;76.45;58.40;;;16.00;99.90;;;;;;5115594;27;20038;-68
2022/09/03 00:41:10;;;;;;;66.38;52.95;;;16.00;99.90;;;;;;5111736;27;20079;-68
2022/09/03 00:43:51;;;;;;;66.57;51.67;;;16.10;99.90;;;;;;5111483;28;20059;-68
2022/09/03 00:46:19;;;;;;;68.25;54.95;;;16.10;99.90;;;;;;5109526;27;20057;-68
2022/09/03 00:48:59;;;;;;;63.42;50.10;;;16.10;99.90;;;;;;5110137;28;20042;-68
2022/09/03 00:51:41;;;;;;;61.33;52.00;;;16.00;99.90;;;;;;5122005;27;20396;-68
2022/09/03 00:54:40;;;;;;;65.53;51.80;;;16.00;99.90;;;;;;5112240;27;20027;-68
2022/09/03 00:57:24;;;;;;;71.30;54.47;;;16.00;99.90;;;;;;5111606;27;20036;-68
2022/09/03 01:00:10;;;;;;;89.03;60.30;;;15.90;99.90;;;;;;5108480;27;20034;-68
2022/09/03 01:02:55;;;;;;;80.00;59.17;;;15.90;99.90;;;;;;5109413;27;20028;-68
2022/09/03 01:05:39;;;;;;;72.38;56.05;;;15.80;99.90;;;;;;5112337;27;20127;-68
2022/09/03 01:08:51;;;;;;;62.42;51.08;;;15.80;99.90;;;;;;5111044;27;20027;-69
2022/09/03 01:11:46;;;;;;;63.60;49.00;;;15.80;99.90;;;;;;5107360;27;20077;-69
2022/09/03 01:14:17;;;;;;;55.90;44.83;;;15.80;99.90;;;;;;5106262;28;20035;-68
2022/09/03 01:16:57;;;;;;;50.40;42.33;;;15.70;99.90;;;;;;5105410;27;20560;-69
2022/09/03 01:19:35;;;;;;;;;;;15.70;99.90;;;;;;5113673;27;20023;-68
2022/09/03 01:22:28;;;;;;;51.08;40.22;;;15.60;99.90;;;;;;5112140;27;19912;-68
2022/09/03 01:25:42;;;;;;;56.22;41.88;;;15.60;99.90;;;;;;5116425;27;20396;-69
2022/09/03 01:28:32;;;;;;;53.38;44.10;;;15.40;99.90;;;;;;5099226;27;20035;-68
2022/09/03 01:31:14;;;;;;;59.13;47.85;;;15.50;99.90;;;;;;5107240;28;20032;-69
2022/09/03 01:34:18;;;;;;;52.72;43.72;;;15.50;99.90;;;;;;5117433;27;20028;-68
2022/09/03 01:36:55;;;;;;;55.05;45.42;;;15.40;99.90;;;;;;5085168;28;20040;-69
2022/09/03 01:39:53;;;;;;;51.65;42.67;;;15.40;99.90;;;;;;5104441;27;20031;-69
2022/09/03 01:42:47;;;;;;;56.50;44.67;;;15.40;99.90;;;;;;5066221;28;20055;-68
2022/09/03 01:45:20;;;;;;;73.97;52.60;;;15.50;99.90;;;;;;5097513;28;20031;-69
2022/09/03 01:48:07;;;;;;;144.00;59.35;;;15.40;99.90;;;;;;5106917;27;20038;-68
2022/09/03 01:50:46;;;;;;;138.57;60.28;;;15.40;99.90;;;;;;5123954;27;20031;-68
2022/09/03 01:53:33;;;;;;;80.28;53.42;;;15.40;99.90;;;;;;5121245;27;20038;-68
2022/09/03 01:56:06;;;;;;;88.85;52.63;;;15.30;99.90;;;;;;5107941;28;20062;-69
2022/09/03 01:58:41;;;;;;;84.18;57.45;;;15.20;99.90;;;;;;5106170;27;20092;-69
2022/09/03 02:01:26;;;;;;;86.60;56.08;;;15.20;99.90;;;;;;5087582;28;20481;-69
2022/09/03 02:03:57;;;;;;;66.18;50.83;;;15.20;99.90;;;;;;5109638;27;20028;-69
2022/09/03 02:06:22;;;;;;;91.20;56.65;;;15.20;99.90;;;;;;5113594;27;20052;-69
2022/09/03 02:08:48;;;;;;;72.45;55.10;;;15.30;99.90;;;;;;5110376;27;20111;-69
2022/09/03 02:11:13;;;;;;;73.57;52.90;;;15.20;99.90;;;;;;5111196;27;20062;-69
2022/09/03 02:13:47;;;;;;;67.05;50.28;;;15.20;99.90;;;;;;5108298;27;20036;-69
2022/09/03 02:16:20;;;;;;;67.95;50.65;;;15.10;99.90;;;;;;5112132;27;20384;-69
2022/09/03 02:18:50;;;;;;;74.10;52.50;;;15.10;99.90;;;;;;5091856;28;20503;-69
2022/09/03 02:21:20;;;;;;;77.30;53.75;;;15.00;99.90;;;;;;5108354;27;20139;-69
2022/09/03 02:23:47;;;;;;;81.80;55.85;;;15.00;99.90;;;;;;5109685;27;20031;-69
2022/09/03 02:26:19;;;;;;;77.65;55.63;;;15.00;99.90;;;;;;5109172;27;20377;-69
2022/09/03 02:28:44;;;;;;;80.38;57.63;;;15.00;99.90;;;;;;5111880;27;20578;-69
2022/09/03 02:31:10;;;;;;;82.93;58.33;;;15.00;99.90;;;;;;5110780;27;20106;-69
2022/09/03 02:33:38;;;;;;;120.13;66.45;;;15.10;99.90;;;;;;5108012;27;20088;-69
2022/09/03 02:36:07;;;;;;;76.10;56.22;;;15.10;99.90;;;;;;5112541;27;20034;-69
2022/09/03 02:38:33;;;;;;;75.97;56.55;;;15.00;99.90;;;;;;5109010;27;20031;-69
2022/09/03 02:40:59;;;;;;;80.97;56.42;;;15.10;99.90;;;;;;5117196;27;20397;-69
2022/09/03 02:43:37;;;;;;;77.25;55.63;;;15.10;99.90;;;;;;5107004;27;20027;-69
2022/09/03 02:46:07;;;;;;;78.80;55.35;;;15.00;99.90;;;;;;5102895;28;20034;-69
2022/09/03 02:48:32;;;;;;;82.32;55.80;;;15.10;99.90;;;;;;5083888;28;20031;-69
2022/09/03 02:50:58;;;;;;;73.55;54.65;;;15.10;99.90;;;;;;5094579;27;20031;-69
2022/09/03 02:53:24;;;;;;;77.88;53.88;;;15.10;99.90;;;;;;5111034;27;20461;-69
2022/09/03 02:55:49;;;;;;;77.20;56.25;;;15.10;99.90;;;;;;5095266;28;20036;-69
2022/09/03 02:58:15;;;;;;;75.38;54.30;;;15.20;99.90;;;;;;5089621;27;20044;-69
2022/09/03 03:00:41;;;;;;;70.35;52.67;;;15.20;99.90;;;;;;5118200;27;20075;-69
2022/09/03 03:03:07;;;;;;;66.28;50.15;;;15.20;99.90;;;;;;5118161;27;20023;-70
2022/09/03 03:05:46;;;;;;;67.45;50.85;;;15.20;99.90;;;;;;5109055;27;20623;-69
2022/09/03 03:08:13;;;;;;;71.47;51.17;;;15.30;99.90;;;;;;5108257;28;20049;-69
2022/09/03 03:10:40;;;;;;;64.03;47.00;;;15.30;99.90;;;;;;5110145;27;20032;-69
2022/09/03 03:13:06;;;;;;;57.55;44.78;;;15.30;99.90;;;;;;5089488;27;20031;-69
2022/09/03 03:15:32;;;;;;;53.00;44.85;;;15.40;99.90;;;;;;5109410;27;20100;-69
2022/09/03 03:17:58;;;;;;;53.67;44.92;;;15.40;99.90;;;;;;5092263;28;20027;-69
2022/09/03 03:20:24;;;;;;;51.58;43.15;;;15.40;99.90;;;;;;5105897;28;20486;-69
2022/09/03 03:22:50;;;;;;;49.17;41.60;;;15.30;99.90;;;;;;5114710;27;20645;-69
2022/09/03 03:25:15;;;;;;;48.50;42.05;;;15.30;99.90;;;;;;5105401;28;20135;-68
2022/09/03 03:27:42;;;;;;;43.65;38.95;;;15.20;99.90;;;;;;5090788;27;20038;-69
2022/09/03 03:30:09;;;;;;;39.97;35.70;;;15.30;99.90;;;;;;5107876;27;20469;-68
2022/09/03 03:32:38;;;;;;;42.05;36.40;;;15.20;99.90;;;;;;5112004;27;20109;-68
2022/09/03 03:35:05;;;;;;;40.95;36.03;;;15.20;99.90;;;;;;5104908;27;20040;-69
2022/09/03 03:37:32;;;;;;;40.17;35.85;;;15.10;99.90;;;;;;5100781;28;20019;-69
2022/09/03 03:39:58;;;;;;;39.67;35.38;;;15.10;99.90;;;;;;5106841;28;20537;-68
2022/09/03 03:42:24;;;;;;;41.50;35.38;;;15.10;99.90;;;;;;5106155;28;20125;-69
2022/09/03 03:44:49;;;;;;;41.85;37.20;;;15.10;99.90;;;;;;5106459;28;20733;-68
2022/09/03 03:47:18;;;;;;;43.50;37.08;;;15.10;99.90;;;;;;5107595;28;20036;-68
2022/09/03 03:49:44;;;;;;;39.50;35.20;;;15.10;99.90;;;;;;5112951;27;20405;-68
2022/09/03 03:52:09;;;;;;;46.92;38.08;;;15.10;99.90;;;;;;5108299;27;20458;-68
2022/09/03 03:54:35;;;;;;;47.25;40.22;;;15.10;99.90;;;;;;5107051;27;20130;-69
2022/09/03 03:57:01;;;;;;;47.70;39.60;;;15.00;99.90;;;;;;5109317;27;20030;-69
2022/09/03 03:59:26;;;;;;;58.28;44.03;;;15.00;99.90;;;;;;5105331;28;20046;-68
2022/09/03 04:01:55;;;;;;;60.90;44.33;;;15.10;99.90;;;;;;5113185;27;20138;-68
2022/09/03 04:04:20;;;;;;;60.10;44.00;;;15.00;99.90;;;;;;5110189;27;20118;-68
2022/09/03 04:06:46;;;;;;;68.05;45.78;;;15.00;99.90;;;;;;5106179;27;20535;-68
2022/09/03 04:09:11;;;;;;;70.05;47.35;;;15.00;99.90;;;;;;5108424;27;20034;-68
2022/09/03 04:11:37;;;;;;;77.65;45.60;;;15.00;99.90;;;;;;5107248;27;20046;-68
2022/09/03 04:14:03;;;;;;;69.60;45.42;;;15.00;99.90;;;;;;5108888;28;20043;-69
2022/09/03 04:16:31;;;;;;;86.03;47.50;;;15.00;99.90;;;;;;5105395;28;20030;-69
2022/09/03 04:18:57;;;;;;;83.10;48.00;;;14.90;99.90;;;;;;5109275;27;20623;-69
2022/09/03 04:21:28;;;;;;;71.95;46.17;;;14.90;99.90;;;;;;5111013;28;20039;-68
2022/09/03 04:23:54;;;;;;;69.07;46.90;;;14.90;99.90;;;;;;5108272;28;20516;-68
2022/09/03 04:26:22;;;;;;;80.85;51.42;;;14.90;99.90;;;;;;5093040;28;20142;-69
2022/09/03 04:28:48;;;;;;;84.45;51.33;;;14.80;99.90;;;;;;5107692;28;20062;-68
2022/09/03 04:31:16;;;;;;;108.72;54.55;;;14.80;99.90;;;;;;5109796;28;20027;-69
2022/09/03 04:33:42;;;;;;;81.05;52.08;;;14.70;99.90;;;;;;5108735;28;20722;-69
2022/09/03 04:36:12;;;;;;;94.30;51.80;;;14.70;99.90;;;;;;5107091;28;20462;-68
2022/09/03 04:38:41;;;;;;;100.28;51.85;;;14.60;99.90;;;;;;5111719;28;20027;-68
2022/09/03 04:41:11;;;;;;;102.63;54.75;;;14.60;99.90;;;;;;5111896;28;20051;-68
2022/09/03 04:43:37;;;;;;;81.68;51.53;;;14.60;99.90;;;;;;5110751;28;20134;-69
2022/09/03 04:46:05;;;;;;;71.93;48.78;;;14.50;99.90;;;;;;5106152;28;20027;-68
2022/09/03 04:48:33;;;;;;;82.82;50.95;;;14.50;99.90;;;;;;5105875;28;20547;-68
2022/09/03 04:51:14;;;;;;;84.00;49.40;;;14.40;99.90;;;;;;5103480;28;20478;-68
2022/09/03 04:53:42;;;;;;;75.65;49.22;;;14.40;99.90;;;;;;5101456;28;20131;-68
2022/09/03 04:56:26;;;;;;;75.60;51.42;;;14.40;99.90;;;;;;5108935;28;20058;-68
2022/09/03 04:58:57;;;;;;;70.68;51.08;;;14.40;99.90;;;;;;5112969;28;20431;-68
2022/09/03 05:01:25;;;;;;;68.75;49.00;;;14.40;99.90;;;;;;5105026;28;20100;-68
2022/09/03 05:03:53;;;;;;;73.57;51.08;;;14.50;99.90;;;;;;5110333;28;20729;-68
2022/09/03 05:06:19;;;;;;;70.78;49.13;;;14.50;99.90;;;;;;5106833;28;20042;-68
2022/09/03 05:08:49;;;;;;;73.78;48.20;;;14.50;99.90;;;;;;5106336;28;20028;-68
2022/09/03 05:11:15;;;;;;;72.00;49.83;;;14.50;99.90;;;;;;5110450;28;20027;-68
2022/09/03 05:13:41;;;;;;;67.00;45.20;;;14.60;99.90;;;;;;5106662;28;20770;-68
2022/09/03 05:16:09;;;;;;;74.45;46.70;;;14.60;99.90;;;;;;5107838;28;20035;-69
2022/09/03 05:18:35;;;;;;;74.70;46.15;;;14.70;99.90;;;;;;5115437;27;20023;-69
2022/09/03 05:21:03;;;;;;;73.00;46.55;;;14.70;99.90;;;;;;5106410;27;20034;-69
2022/09/03 05:23:29;;;;;;;80.40;50.08;;;14.80;99.90;;;;;;5103535;28;20027;-69
2022/09/03 05:26:03;;;;;;;84.40;50.03;;;14.80;99.90;;;;;;5106719;27;20389;-69
2022/09/03 05:28:30;;;;;;;76.38;47.45;;;14.80;99.90;;;;;;5105838;28;20055;-69
2022/09/03 05:31:00;;;;;;;79.03;47.65;;;14.70;99.90;;;;;;5113101;27;20039;-69
2022/09/03 05:33:26;;;;;;;66.70;46.20;;;14.60;99.90;;;;;;5110872;28;20051;-69
2022/09/03 05:35:54;;;;;;;66.32;46.25;;;14.70;99.90;;;;;;5093147;28;20043;-69
2022/09/03 05:38:20;;;;;;;70.07;48.05;;;14.60;99.90;;;;;;5110501;27;20023;-69
2022/09/03 05:40:45;;;;;;;71.28;46.22;;;14.60;99.90;;;;;;5114459;27;20484;-69
2022/09/03 05:43:11;;;;;;;59.50;43.08;;;14.60;99.90;;;;;;5111287;27;20074;-69
2022/09/03 05:45:36;;;;;;;60.70;41.97;;;14.60;99.90;;;;;;5113131;27;20034;-68
2022/09/03 05:48:02;;;;;;;59.20;41.85;;;14.60;99.90;;;;;;5109603;27;20032;-69
2022/09/03 05:50:28;;;;;;;56.67;42.55;;;14.60;99.90;;;;;;5107854;27;20027;-69
2022/09/03 05:52:53;;;;;;;63.58;43.55;;;14.50;99.90;;;;;;5108479;27;20028;-68
2022/09/03 05:55:19;;;;;;;59.47;41.50;;;14.50;99.90;;;;;;5111583;27;20464;-69
2022/09/03 05:57:50;;;;;;;60.13;43.47;;;14.40;99.90;;;;;;5103152;27;20032;-68
2022/09/03 06:00:17;;;;;;;66.20;45.35;;;14.40;99.90;;;;;;5106501;27;20097;-68
2022/09/03 06:02:48;;;;;;;64.82;44.95;;;14.40;99.90;;;;;;5110319;27;20024;-68
2022/09/03 06:05:15;;;;;;;68.15;45.67;;;14.40;99.90;;;;;;5108385;27;20080;-68
2022/09/03 06:07:41;;;;;;;54.05;40.60;;;14.30;99.90;;;;;;5116092;27;20715;-68
2022/09/03 06:10:07;;;;;;;55.88;40.85;;;14.30;99.90;;;;;;5111432;27;20028;-68
2022/09/03 06:12:32;;;;;;;59.13;41.60;;;14.20;99.90;;;;;;5107035;27;20028;-67
2022/09/03 06:14:58;;;;;;;51.83;39.72;;;14.20;99.90;;;;;;5105440;28;20032;-68
2022/09/03 06:17:24;;;;;;;50.35;37.78;;;14.30;99.90;;;;;;5104825;27;20089;-68
2022/09/03 06:19:49;;;;;;;50.47;38.22;;;14.40;99.90;;;;;;5109566;27;20765;-67
2022/09/03 06:22:16;;;;;;;46.33;37.65;;;14.40;99.90;;;;;;5110770;27;20051;-68
2022/09/03 06:24:41;;;;;;;47.63;37.83;;;14.50;99.90;;;;;;5094097;28;20028;-67
2022/09/03 06:27:07;;;;;;;48.22;37.53;;;14.50;99.90;;;;;;5105493;27;20081;-68
2022/09/03 06:29:34;;;;;;;48.97;37.15;;;14.60;99.90;;;;;;5105077;27;20028;-68
2022/09/03 06:32:03;;;;;;;57.38;40.55;;;14.60;99.90;;;;;;5098361;27;20024;-68
2022/09/03 06:34:29;;;;;;;51.10;38.25;;;14.60;99.90;;;;;;5106102;27;20562;-68
2022/09/03 06:36:54;;;;;;;53.80;40.38;;;14.70;99.90;;;;;;5107250;28;20044;-68
2022/09/03 06:39:20;;;;;;;53.83;40.28;;;14.80;99.90;;;;;;5110155;27;20488;-68
2022/09/03 06:41:47;;;;;;;50.08;39.45;;;14.80;99.90;;;;;;5109340;27;20051;-69
2022/09/03 06:44:13;;;;;;;49.40;38.60;;;14.90;99.90;;;;;;5112377;27;20027;-68
2022/09/03 06:46:43;;;;;;;45.25;36.92;;;15.00;99.90;;;;;;5109483;27;20115;-68
2022/09/03 06:49:10;;;;;;;42.78;35.58;;;15.20;99.90;;;;;;5109474;27;20486;-69
2022/09/03 06:51:36;;;;;;;47.83;36.17;;;15.30;99.90;;;;;;5106238;27;20569;-68
2022/09/03 06:54:05;;;;;;;48.17;39.28;;;15.50;99.90;;;;;;5083572;27;20092;-68
2022/09/03 06:56:32;;;;;;;48.47;40.53;;;15.60;99.90;;;;;;5089040;27;20737;-69
2022/09/03 06:59:03;;;;;;;45.95;40.05;;;15.70;99.90;;;;;;5104267;27;20089;-69
2022/09/03 07:01:30;;;;;;;46.20;39.22;;;15.90;99.90;;;;;;5110631;27;20038;-68
2022/09/03 07:04:01;;;;;;;47.47;38.95;;;16.00;99.90;;;;;;5106855;27;20045;-68
2022/09/03 07:06:30;;;;;;;42.35;36.88;;;16.10;99.90;;;;;;5106055;27;20070;-69
2022/09/03 07:08:56;;;;;;;47.03;38.58;;;16.30;99.90;;;;;;5111464;27;20047;-68
2022/09/03 07:11:26;;;;;;;50.13;38.80;;;16.40;99.90;;;;;;5083284;27;20042;-68
2022/09/03 07:13:54;;;;;;;48.63;40.42;;;16.50;99.90;;;;;;5116692;27;20526;-69
2022/09/03 07:16:28;;;;;;;44.97;40.08;;;16.60;99.90;;;;;;5114123;27;20035;-68
2022/09/03 07:18:55;;;;;;;50.40;43.22;;;16.60;99.90;;;;;;5091527;27;20038;-68
2022/09/03 07:21:26;;;;;;;45.08;38.97;;;16.80;99.90;;;;;;5117162;27;20083;-68
2022/09/03 07:23:53;;;;;;;46.03;41.13;;;16.90;99.90;;;;;;5115367;27;20038;-69
2022/09/03 07:26:22;;;;;;;57.15;50.25;;;17.00;99.90;;;;;;5112333;27;20381;-68
2022/09/03 07:28:49;;;;;;;58.22;48.80;;;17.10;99.90;;;;;;5096116;27;20126;-68
2022/09/03 07:31:24;;;;;;;58.25;50.08;;;17.30;99.90;;;;;;5117913;27;20553;-68
2022/09/03 07:34:11;;;;;;;59.97;51.45;;;17.50;99.90;;;;;;5111603;27;20079;-69
2022/09/03 07:36:41;;;;;;;59.08;52.67;;;17.80;99.90;;;;;;5108610;27;20036;-69
2022/09/03 07:39:08;;;;;;;56.60;50.47;;;18.00;99.90;;;;;;5091960;27;20031;-68
2022/09/03 07:41:34;;;;;;;58.88;51.95;;;18.10;99.90;;;;;;5115423;27;20517;-68
2022/09/03 07:44:07;;;;;;;58.05;51.85;;;18.20;99.90;;;;;;5114625;27;20077;-69
2022/09/03 07:46:35;;;;;;;65.82;56.85;;;18.40;99.90;;;;;;5111577;27;20514;-68
2022/09/03 07:49:02;;;;;;;64.23;55.37;;;18.40;99.90;;;;;;5117416;27;20404;-68
2022/09/03 07:51:31;;;;;;;57.67;51.42;;;18.60;99.90;;;;;;5097228;27;20054;-69
2022/09/03 07:54:01;;;;;;;61.05;54.47;;;18.60;99.90;;;;;;5111940;27;20020;-68
2022/09/03 07:56:29;;;;;;;61.85;53.10;;;18.70;99.90;;;;;;5107950;27;20497;-68
2022/09/03 07:58:56;;;;;;;62.78;54.42;;;18.80;99.90;;;;;;5115535;27;20043;-69
2022/09/03 08:01:24;;;;;;;51.05;45.63;;;18.90;99.90;;;;;;5115047;27;20042;-68
2022/09/03 08:03:52;;;;;;;54.17;48.55;;;19.00;99.90;;;;;;5113116;27;20042;-69
2022/09/03 08:06:21;;;;;;;54.45;48.42;;;19.00;99.90;;;;;;5090665;27;20042;-69
2022/09/03 08:08:47;;;;;;;53.70;46.97;;;19.00;99.90;;;;;;5109011;27;20023;-68
2022/09/03 08:11:16;;;;;;;51.30;45.85;;;19.10;99.90;;;;;;5119775;27;20389;-68
2022/09/03 08:13:44;;;;;;;50.37;44.87;;;19.20;99.90;;;;;;5110878;27;20023;-68
2022/09/03 08:16:14;;;;;;;45.88;40.40;;;19.40;99.90;;;;;;5106829;27;20043;-68
2022/09/03 08:18:40;;;;;;;45.22;40.30;;;19.40;99.90;;;;;;5119907;27;20059;-69
2022/09/03 08:21:08;;;;;;;48.67;42.67;;;19.60;99.90;;;;;;5088039;28;20059;-69
2022/09/03 08:23:38;;;;;;;45.72;40.78;;;19.70;99.90;;;;;;5089981;28;20039;-68
2022/09/03 08:26:05;;;;;;;42.47;35.83;;;19.90;99.90;;;;;;5113072;28;20047;-68
2022/09/03 08:28:33;;;;;;;36.58;32.60;;;20.10;99.90;;;;;;5098364;28;20019;-70
2022/09/03 08:31:10;;;;;;;32.42;28.92;;;20.20;99.90;;;;;;5098150;28;20413;-69
2022/09/03 08:33:41;;;;;;;28.92;25.92;;;20.50;99.90;;;;;;5086502;28;20565;-69
2022/09/03 08:36:11;;;;;;;25.75;23.10;;;20.60;99.90;;;;;;5092660;28;20027;-70
2022/09/03 08:38:38;;;;;;;24.70;22.15;;;20.80;99.90;;;;;;5109655;28;20724;-69
2022/09/03 08:41:32;;;;;;;27.58;24.70;;;20.90;99.90;;;;;;5098206;28;20418;-70
2022/09/03 08:44:32;;;;;;;25.67;23.02;;;21.10;99.90;;;;;;5102661;28;20028;-68
2022/09/03 08:47:16;;;;;;;;;;;21.30;99.90;;;;;;5099613;28;20084;-68
2022/09/03 08:50:02;;;;;;;21.80;19.50;;;21.30;99.90;;;;;;5111248;28;20436;-68
2022/09/03 08:52:39;;;;;;;21.15;18.15;;;21.40;99.90;;;;;;5107056;27;20055;-68
2022/09/03 08:55:23;;;;;;;21.88;19.70;;;21.40;99.90;;;;;;5105433;27;20397;-68
2022/09/03 08:58:13;;;;;;;19.73;17.63;;;21.50;99.90;;;;;;5111591;27;20599;-70
2022/09/03 09:00:47;;;;;;;20.15;17.75;;;21.60;99.90;;;;;;5108517;27;20027;-68
2022/09/03 09:03:31;;;;;;;19.85;15.88;;;21.60;99.90;;;;;;5110831;27;20032;-67
2022/09/03 09:06:19;;;;;;;18.75;16.85;;;21.70;99.90;;;;;;5122534;27;20027;-68
2022/09/03 09:08:55;;;;;;;23.98;19.90;;;21.70;99.90;;;;;;5107865;27;20027;-69
2022/09/03 09:11:31;;;;;;;20.50;18.40;;;21.70;99.90;;;;;;5110024;28;20034;-69
2022/09/03 09:14:16;;;;;;;18.00;15.02;;;21.70;99.90;;;;;;5108236;28;20031;-70
2022/09/03 09:17:12;;;;;;;15.35;13.73;;;21.70;99.90;;;;;;5108219;27;20046;-69
2022/09/03 09:19:49;;;;;;;15.70;13.82;;;21.60;99.90;;;;;;5093385;27;20047;-69
2022/09/03 09:22:42;;;;;;;14.13;11.77;;;21.50;99.90;;;;;;5104785;27;20031;-69
2022/09/03 09:25:17;;;;;;;16.00;14.32;;;21.70;99.90;;;;;;5104895;27;20028;-69
2022/09/03 09:27:50;;;;;;;11.77;10.35;;;21.80;99.90;;;;;;5106648;27;20028;-69
2022/09/03 09:30:17;;;;;;;9.95;8.73;;;22.00;99.90;;;;;;5108337;27;20127;-69
2022/09/03 09:32:43;;;;;;;10.60;9.02;;;22.30;99.90;;;;;;5107734;27;20027;-69
2022/09/03 09:35:10;;;;;;;9.32;7.22;;;22.60;99.90;;;;;;5106859;27;20034;-69
2022/09/03 09:37:47;;;;;;;7.40;5.43;;;22.80;99.90;;;;;;5094547;27;20039;-68
2022/09/03 09:40:44;;;;;;;7.25;6.05;;;23.00;99.90;;;;;;5116233;27;20035;-69
2022/09/03 09:43:15;;;;;;;6.47;5.03;;;23.20;99.90;;;;;;5095263;27;20039;-69
2022/09/03 09:45:43;;;;;;;6.72;4.63;;;23.40;99.90;;;;;;5095235;27;20481;-70
2022/09/03 09:48:20;;;;;;;5.78;3.58;;;23.30;99.90;;;;;;5102359;27;20038;-70
2022/09/03 09:50:45;;;;;;;5.95;4.05;;;23.30;99.90;;;;;;5084035;27;20057;-69
2022/09/03 09:53:15;;;;;;;5.57;3.33;;;23.30;99.90;;;;;;5105111;27;20028;-70
2022/09/03 09:55:56;;;;;;;6.10;3.50;;;23.20;99.90;;;;;;5108867;27;20043;-69
2022/09/03 09:58:29;;;;;;;5.88;3.63;;;23.20;99.90;;;;;;5108904;28;20035;-70
2022/09/03 10:01:13;;;;;;;6.90;5.63;;;23.20;99.90;;;;;;5085725;28;20119;-71
2022/09/03 10:03:54;;;;;;;6.25;4.88;;;23.20;99.90;;;;;;5107887;27;20023;-70
2022/09/03 10:09:28;;;;;;;6.07;4.18;;;23.40;99.90;;;;;;5110554;27;20207;-70
2022/09/03 10:12:23;;;;;;;5.80;3.97;;;23.50;99.90;;;;;;5110215;27;20151;-70
2022/09/03 10:15:09;;;;;;;6.40;4.85;;;23.50;99.90;;;;;;5111124;27;20031;-70
2022/09/03 10:17:48;;;;;;;7.93;5.07;;;23.40;99.90;;;;;;5100330;27;20058;-70
2022/09/03 10:20:43;;;;;;;6.25;4.22;;;23.10;99.90;;;;;;5102829;28;20139;-70
2022/09/03 10:23:14;;;;;;;6.00;4.32;;;23.00;99.90;;;;;;5106284;28;20047;-69
2022/09/03 10:25:55;;;;;;;5.53;3.90;;;23.00;99.90;;;;;;5108381;28;20039;-70
2022/09/03 10:28:25;;;;;;;5.63;3.90;;;23.30;99.90;;;;;;5102871;27;20034;-69
2022/09/03 10:30:54;;;;;;;6.50;3.72;;;23.50;99.90;;;;;;5102663;28;20032;-69
2022/09/03 10:33:33;;;;;;;5.72;3.78;;;23.50;99.90;;;;;;5102414;27;20035;-69
2022/09/03 10:36:20;;;;;;;6.75;3.78;;;23.60;99.90;;;;;;5103208;28;20688;-69
2022/09/03 10:38:53;;;;;;;6.38;3.58;;;23.60;99.90;;;;;;5089798;28;20515;-70
2022/09/03 10:41:40;;;;;;;4.40;3.15;;;23.60;99.90;;;;;;5101006;27;20040;-70
2022/09/03 10:44:41;;;;;;;4.38;3.13;;;23.70;99.90;;;;;;5104943;27;20035;-70
2022/09/03 10:47:25;;;;;;;4.88;3.38;;;23.80;99.90;;;;;;5107008;27;20028;-69
2022/09/03 10:50:14;;;;;;;4.78;2.90;;;23.90;99.90;;;;;;5112353;27;20531;-69
2022/09/03 10:52:56;;;;;;;4.18;3.00;;;23.70;99.90;;;;;;5109221;27;20751;-68
2022/09/03 10:56:00;;;;;;;4.53;3.00;;;23.80;99.90;;;;;;5087582;28;20032;-69
2022/09/03 10:58:39;;;;;;;4.60;3.80;;;24.00;99.90;;;;;;5099030;28;20776;-69
2022/09/03 11:01:39;;;;;;;5.72;4.22;;;24.00;99.90;;;;;;5101891;27;20032;-69
2022/09/03 11:04:22;;;;;;;5.53;4.07;;;23.90;99.90;;;;;;5083376;28;20169;-70
2022/09/03 11:07:01;;;;;;;7.75;4.95;;;23.70;99.90;;;;;;5104241;27;20055;-70
2022/09/03 11:09:36;;;;;;;4.82;3.67;;;23.50;99.90;;;;;;5096446;28;20036;-69
2022/09/03 11:12:16;;;;;;;5.57;3.90;;;23.30;99.90;;;;;;5105981;27;20503;-69
2022/09/03 11:14:47;;;;;;;6.15;5.25;;;23.10;99.90;;;;;;5088905;28;20057;-70
2022/09/03 11:17:31;;;;;;;5.57;4.70;;;23.00;99.90;;;;;;5102723;27;20039;-70
2022/09/03 11:20:18;;;;;;;5.78;4.68;;;23.00;99.90;;;;;;5090073;28;20024;-69
2022/09/03 11:22:45;;;;;;;6.68;5.70;;;23.00;99.90;;;;;;5102059;28;20028;-70
2022/09/03 11:25:14;;;;;;;8.50;6.95;;;23.00;99.90;;;;;;5103400;27;20514;-70
2022/09/03 11:27:53;;;;;;;8.50;6.88;;;23.00;99.90;;;;;;5101524;27;20035;-70
2022/09/03 11:31:12;;;;;;;6.03;5.03;;;22.90;99.90;;;;;;5108660;27;20066;-70
2022/09/03 11:33:48;;;;;;;8.07;6.82;;;23.20;99.90;;;;;;5018367;28;20041;-70
2022/09/03 11:36:33;;;;;;;7.80;5.70;;;24.20;99.90;;;;;;5021539;28;20104;-70
2022/09/03 11:39:02;;;;;;;8.75;6.13;;;24.60;99.90;;;;;;5017882;28;20044;-70
2022/09/03 11:41:34;;;;;;;8.18;6.63;;;24.40;99.90;;;;;;5021201;28;20045;-68
2022/09/03 11:44:15;;;;;;;6.65;5.93;;;24.20;99.90;;;;;;5021428;28;20789;-68
2022/09/03 11:46:51;;;;;;;8.68;6.80;;;24.00;99.90;;;;;;5017417;28;20473;-68
2022/09/03 11:49:28;;;;;;;8.98;5.90;;;23.90;99.90;;;;;;5013883;28;20044;-69
2022/09/03 11:52:03;;;;;;;10.32;8.77;;;23.80;99.90;;;;;;5012446;28;20041;-69
2022/09/03 11:54:41;;;;;;;8.82;7.93;;;23.60;99.90;;;;;;5020414;28;20080;-71
2022/09/03 11:57:13;;;;;;;10.85;8.77;;;23.50;99.90;;;;;;5029692;28;20049;-69
2022/09/03 11:59:42;;;;;;;10.50;8.63;;;23.40;99.90;;;;;;5020518;28;20037;-69
2022/09/03 12:02:13;;;;;;;12.33;10.53;;;23.10;99.90;;;;;;5017503;28;20112;-68
2022/09/03 12:04:47;;;;;;;11.25;9.40;;;22.80;99.90;;;;;;5020904;28;20041;-70
2022/09/03 12:07:31;;;;;;;12.48;10.85;;;22.50;99.90;;;;;;5023442;28;20055;-69
2022/09/03 12:10:07;;;;;;;13.30;11.80;;;22.40;99.90;;;;;;5054080;28;20043;-69
2022/09/03 12:12:47;;;;;;;12.70;11.48;;;22.20;99.90;;;;;;5104722;27;20115;-68
2022/09/03 12:15:13;;;;;;;;;;;22.10;99.90;;;;;;5110505;27;20039;-69
2022/09/03 12:18:20;;;;;;;13.88;12.38;;;21.90;99.90;;;;;;5103956;28;20037;-69
2022/09/03 12:20:52;;;;;;;12.85;11.30;;;21.80;99.90;;;;;;5102149;28;20031;-70
2022/09/03 12:23:39;;;;;;;15.20;13.60;;;21.70;99.90;;;;;;5106064;28;20054;-69
2022/09/03 12:26:26;;;;;;;15.35;13.75;;;21.60;99.90;;;;;;5099594;28;20086;-70
2022/09/03 12:28:55;;;;;;;14.05;12.18;;;21.60;99.90;;;;;;5099839;28;20031;-70
2022/09/03 12:31:30;;;;;;;15.30;12.80;;;21.50;99.90;;;;;;5100522;28;20050;-71
2022/09/03 12:34:00;;;;;;;14.50;13.00;;;21.50;99.90;;;;;;5097963;28;20039;-69
2022/09/03 12:36:45;;;;;;;14.48;13.07;;;21.50;99.90;;;;;;5100242;28;20044;-70
2022/09/03 12:39:16;;;;;;;17.75;15.95;;;21.70;99.90;;;;;;5093893;28;20105;-69
2022/09/03 12:42:03;;;;;;;16.00;14.40;;;22.10;99.90;;;;;;5098633;28;20044;-70
2022/09/03 12:44:34;;;;;;;13.82;12.32;;;22.30;99.90;;;;;;5106657;28;20508;-69
2022/09/03 12:47:14;;;;;;;11.82;9.70;;;22.30;99.90;;;;;;5092257;28;20028;-69
2022/09/03 12:49:42;;;;;;;8.30;7.15;;;22.10;99.90;;;;;;5115507;28;20036;-69
2022/09/03 12:52:34;;;;;;;9.27;6.70;;;21.90;99.90;;;;;;5098309;28;20031;-70
2022/09/03 12:55:03;;;;;;;8.68;6.68;;;21.70;99.90;;;;;;5111371;28;20358;-69
2022/09/03 12:57:37;;;;;;;8.15;6.18;;;21.70;99.90;;;;;;5111788;28;20040;-71
2022/09/03 13:00:08;;;;;;;8.68;5.53;;;21.60;99.90;;;;;;5092590;28;20048;-70
2022/09/03 13:02:50;;;;;;;8.25;6.57;;;21.50;99.90;;;;;;5101924;28;20177;-69
2022/09/03 13:05:19;;;;;;;7.93;6.00;;;21.50;99.90;;;;;;5098215;28;20036;-68
2022/09/03 13:07:53;;;;;;;8.52;5.82;;;21.70;99.90;;;;;;5083319;28;20067;-69
2022/09/03 13:10:27;;;;;;;9.50;6.57;;;21.90;99.90;;;;;;5101382;28;20063;-71